createdAt,value
2017-09-08T00:00:17.948Z,0
2017-09-08T00:00:58.402Z,0
2017-09-08T00:01:38.882Z,0
2017-09-08T00:02:19.437Z,0
2017-09-08T00:02:59.885Z,0
2017-09-08T00:03:40.333Z,0
2017-09-08T00:04:21.010Z,0
2017-09-08T00:05:01.462Z,0
2017-09-08T00:05:41.915Z,0
2017-09-08T00:06:22.460Z,0
2017-09-08T00:07:02.915Z,0
2017-09-08T00:07:43.368Z,0
2017-09-08T00:08:23.853Z,0
2017-09-08T00:09:04.307Z,0
2017-09-08T00:09:44.764Z,0
2017-09-08T00:10:25.303Z,0
2017-09-08T00:11:05.785Z,0
2017-09-08T00:11:46.241Z,0
2017-09-08T00:12:26.703Z,0
2017-09-08T00:13:07.190Z,0
2017-09-08T00:13:47.618Z,0
2017-09-08T00:14:28.075Z,0
2017-09-08T00:15:08.522Z,0
2017-09-08T00:15:48.980Z,0
2017-09-08T00:16:29.440Z,0
2017-09-08T00:17:09.894Z,0
2017-09-08T00:17:50.349Z,0
2017-09-08T00:18:30.799Z,0
2017-09-08T00:19:11.251Z,0
2017-09-08T00:19:51.704Z,0
2017-09-08T00:20:32.155Z,0
2017-09-08T00:21:12.609Z,0
2017-09-08T00:21:53.061Z,0
2017-09-08T00:22:33.516Z,0
2017-09-08T00:23:13.960Z,0
2017-09-08T00:23:54.413Z,0
2017-09-08T00:24:34.856Z,0
2017-09-08T00:25:15.307Z,0
2017-09-08T00:25:55.789Z,0
2017-09-08T00:26:36.241Z,0
2017-09-08T00:27:16.699Z,0
2017-09-08T00:27:57.158Z,0
2017-09-08T00:28:37.605Z,0
2017-09-08T00:29:18.067Z,0
2017-09-08T00:29:58.521Z,0
2017-09-08T00:30:38.981Z,0
2017-09-08T00:31:19.428Z,0
2017-09-08T00:31:59.899Z,0
2017-09-08T00:32:40.329Z,0
2017-09-08T00:33:20.779Z,0
2017-09-08T00:34:01.337Z,0
2017-09-08T00:34:41.792Z,0
2017-09-08T00:35:22.239Z,0
2017-09-08T00:36:02.689Z,0
2017-09-08T00:36:43.137Z,0
2017-09-08T00:37:23.580Z,0
2017-09-08T00:38:04.033Z,0
2017-09-08T00:38:44.493Z,0
2017-09-08T00:39:24.951Z,0
2017-09-08T00:40:05.409Z,0
2017-09-08T00:40:45.866Z,0
2017-09-08T00:41:26.339Z,0
2017-09-08T00:42:06.938Z,0
2017-09-08T00:42:47.390Z,0
2017-09-08T00:43:27.849Z,0
2017-09-08T00:44:08.303Z,0
2017-09-08T00:44:48.752Z,0
2017-09-08T00:45:29.233Z,0
2017-09-08T00:46:09.690Z,0
2017-09-08T00:46:50.143Z,0
2017-09-08T00:47:30.597Z,0
2017-09-08T00:48:11.055Z,0
2017-09-08T00:48:51.512Z,0
2017-09-08T00:49:31.962Z,0
2017-09-08T00:50:12.393Z,0
2017-09-08T00:50:52.861Z,0
2017-09-08T00:51:33.313Z,0
2017-09-08T00:52:13.779Z,0
2017-09-08T00:52:54.229Z,0
2017-09-08T00:53:34.686Z,0
2017-09-08T00:54:15.137Z,0
2017-09-08T00:54:55.595Z,0
2017-09-08T00:55:36.046Z,0
2017-09-08T00:56:16.492Z,0
2017-09-08T00:56:56.955Z,0
2017-09-08T00:57:37.413Z,0
2017-09-08T00:58:17.880Z,0
2017-09-08T00:58:58.331Z,0
2017-09-08T00:59:38.779Z,0
2017-09-08T01:00:19.226Z,0
2017-09-08T01:00:59.679Z,0
2017-09-08T01:01:40.130Z,0
2017-09-08T01:02:20.580Z,0
2017-09-08T01:03:01.044Z,0
2017-09-08T01:03:41.492Z,0
2017-09-08T01:04:22.023Z,0
2017-09-08T01:05:02.474Z,0
2017-09-08T01:05:42.920Z,0
2017-09-08T01:06:23.364Z,0
2017-09-08T01:07:03.810Z,0
2017-09-08T01:07:44.285Z,0
2017-09-08T01:10:02.154Z,0
2017-09-08T01:10:42.611Z,0
2017-09-08T01:11:23.074Z,0
2017-09-08T01:12:03.528Z,0
2017-09-08T01:12:43.984Z,0
2017-09-08T01:13:24.434Z,0
2017-09-08T01:14:04.890Z,0
2017-09-08T01:14:45.351Z,0
2017-09-08T01:15:25.803Z,0
2017-09-08T01:16:06.261Z,0
2017-09-08T01:16:46.710Z,0
2017-09-08T01:17:27.169Z,0
2017-09-08T01:18:07.630Z,0
2017-09-08T01:18:48.080Z,0
2017-09-08T01:19:28.536Z,0
2017-09-08T01:20:08.993Z,0
2017-09-08T01:20:49.454Z,0
2017-09-08T01:21:29.904Z,0
2017-09-08T01:22:10.360Z,0
2017-09-08T01:22:51.252Z,0
2017-09-08T01:23:31.701Z,0
2017-09-08T01:24:12.144Z,0
2017-09-08T01:24:52.600Z,0
2017-09-08T01:25:33.058Z,0
2017-09-08T01:26:13.515Z,0
2017-09-08T01:26:53.972Z,0
2017-09-08T01:27:34.428Z,0
2017-09-08T01:28:14.877Z,0
2017-09-08T01:28:55.344Z,0
2017-09-08T01:29:35.797Z,0
2017-09-08T01:30:16.301Z,0
2017-09-08T01:30:56.752Z,0
2017-09-08T01:31:37.198Z,0
2017-09-08T01:32:17.672Z,0
2017-09-08T01:32:58.126Z,0
2017-09-08T01:33:38.587Z,0
2017-09-08T01:34:19.053Z,0
2017-09-08T01:34:59.491Z,0
2017-09-08T01:35:39.957Z,0
2017-09-08T01:36:20.404Z,0
2017-09-08T01:37:00.849Z,0
2017-09-08T01:37:41.293Z,0
2017-09-08T01:38:21.739Z,0
2017-09-08T01:39:02.190Z,0
2017-09-08T01:39:42.645Z,0
2017-09-08T01:40:23.105Z,0
2017-09-08T01:41:03.550Z,0
2017-09-08T01:41:44.010Z,0
2017-09-08T01:42:24.458Z,0
2017-09-08T01:43:04.917Z,0
2017-09-08T01:43:45.372Z,0
2017-09-08T01:44:25.828Z,0
2017-09-08T01:45:06.279Z,0
2017-09-08T01:45:46.742Z,0
2017-09-08T01:46:27.191Z,0
2017-09-08T01:47:07.639Z,0
2017-09-08T01:47:48.090Z,0
2017-09-08T01:48:28.550Z,0
2017-09-08T01:49:09.014Z,0
2017-09-08T01:49:49.469Z,0
2017-09-08T01:50:29.926Z,0
2017-09-08T01:51:10.373Z,0
2017-09-08T01:51:50.821Z,0
2017-09-08T01:52:31.264Z,0
2017-09-08T01:53:11.710Z,0
2017-09-08T01:53:52.160Z,0
2017-09-08T01:54:32.615Z,0
2017-09-08T01:55:13.076Z,0
2017-09-08T01:55:53.531Z,0
2017-09-08T01:56:33.982Z,0
2017-09-08T01:57:14.435Z,0
2017-09-08T01:57:54.896Z,0
2017-09-08T01:58:35.359Z,0
2017-09-08T01:59:15.813Z,0
2017-09-08T01:59:56.271Z,0
2017-09-08T02:00:36.798Z,0
2017-09-08T02:01:17.246Z,0
2017-09-08T02:01:57.701Z,0
2017-09-08T02:02:38.193Z,0
2017-09-08T02:03:18.658Z,0
2017-09-08T02:03:59.105Z,0
2017-09-08T02:04:39.599Z,0
2017-09-08T02:05:20.053Z,0
2017-09-08T02:06:00.519Z,0
2017-09-08T02:06:40.983Z,0
2017-09-08T02:07:21.436Z,0
2017-09-08T02:08:01.886Z,0
2017-09-08T02:08:42.339Z,0
2017-09-08T02:09:22.795Z,0
2017-09-08T02:10:03.249Z,0
2017-09-08T02:12:36.247Z,0
2017-09-08T02:13:16.725Z,0
2017-09-08T02:13:57.178Z,0
2017-09-08T02:16:10.021Z,0
2017-09-08T02:16:50.467Z,0
2017-09-08T02:17:30.917Z,0
2017-09-08T02:18:11.371Z,0
2017-09-08T02:18:51.815Z,0
2017-09-08T02:19:32.268Z,0
2017-09-08T02:20:12.710Z,0
2017-09-08T02:20:53.165Z,0
2017-09-08T02:21:33.621Z,0
2017-09-08T02:22:14.075Z,0
2017-09-08T02:22:54.527Z,0
2017-09-08T02:23:34.966Z,0
2017-09-08T02:24:15.447Z,0
2017-09-08T02:24:55.893Z,0
2017-09-08T02:25:36.344Z,0
2017-09-08T02:26:16.794Z,0
2017-09-08T02:26:57.238Z,0
2017-09-08T02:27:37.681Z,0
2017-09-08T02:28:18.139Z,0
2017-09-08T02:28:58.599Z,0
2017-09-08T02:29:39.050Z,0
2017-09-08T02:30:19.501Z,0
2017-09-08T02:30:59.952Z,0
2017-09-08T02:31:40.411Z,0
2017-09-08T02:32:20.871Z,0
2017-09-08T02:33:01.329Z,0
2017-09-08T02:33:41.779Z,0
2017-09-08T02:34:22.230Z,0
2017-09-08T02:35:02.682Z,0
2017-09-08T02:35:43.143Z,0
2017-09-08T02:36:23.595Z,0
2017-09-08T02:37:04.039Z,0
2017-09-08T02:37:44.492Z,0
2017-09-08T02:38:24.954Z,0
2017-09-08T02:39:05.407Z,0
2017-09-08T02:39:45.863Z,0
2017-09-08T02:40:26.390Z,0
2017-09-08T02:41:06.829Z,0
2017-09-08T02:41:47.273Z,0
2017-09-08T02:42:27.737Z,0
2017-09-08T02:43:08.194Z,0
2017-09-08T02:43:48.649Z,0
2017-09-08T02:44:29.117Z,0
2017-09-08T02:45:09.557Z,0
2017-09-08T02:45:50.014Z,0
2017-09-08T02:46:30.464Z,0
2017-09-08T02:47:10.915Z,0
2017-09-08T02:47:51.369Z,0
2017-09-08T02:48:31.823Z,0
2017-09-08T02:49:12.283Z,0
2017-09-08T02:49:52.738Z,0
2017-09-08T02:50:33.205Z,0
2017-09-08T02:51:13.661Z,0
2017-09-08T02:51:54.110Z,0
2017-09-08T02:52:34.561Z,0
2017-09-08T02:53:15.018Z,0
2017-09-08T02:53:55.467Z,0
2017-09-08T02:54:35.919Z,0
2017-09-08T02:55:16.371Z,0
2017-09-08T02:55:56.884Z,0
2017-09-08T02:56:37.384Z,0
2017-09-08T02:57:17.840Z,0
2017-09-08T02:57:58.294Z,0
2017-09-08T02:58:38.794Z,0
2017-09-08T02:59:19.246Z,0
2017-09-08T02:59:59.687Z,0
2017-09-08T03:00:40.198Z,0
2017-09-08T03:01:20.659Z,0
2017-09-08T03:02:01.116Z,0
2017-09-08T03:02:41.565Z,0
2017-09-08T03:03:22.019Z,0
2017-09-08T03:04:02.484Z,0
2017-09-08T03:04:42.947Z,0
2017-09-08T03:05:23.399Z,0
2017-09-08T03:06:03.852Z,0
2017-09-08T03:06:44.304Z,0
2017-09-08T03:07:24.760Z,0
2017-09-08T03:08:05.220Z,0
2017-09-08T03:08:45.671Z,0
2017-09-08T03:09:26.131Z,0
2017-09-08T03:10:06.688Z,0
2017-09-08T03:10:47.062Z,0
2017-09-08T03:11:27.569Z,0
2017-09-08T03:12:08.020Z,0
2017-09-08T03:12:48.473Z,0
2017-09-08T03:13:28.931Z,0
2017-09-08T03:14:09.381Z,0
2017-09-08T03:14:49.835Z,0
2017-09-08T03:15:30.291Z,0
2017-09-08T03:16:10.746Z,0
2017-09-08T03:16:51.199Z,0
2017-09-08T03:17:31.653Z,0
2017-09-08T03:18:12.117Z,0
2017-09-08T03:18:52.562Z,0
2017-09-08T03:19:33.022Z,0
2017-09-08T03:20:13.474Z,0
2017-09-08T03:20:53.928Z,0
2017-09-08T03:21:34.380Z,0
2017-09-08T03:22:14.835Z,0
2017-09-08T03:22:55.287Z,0
2017-09-08T03:23:35.737Z,0
2017-09-08T03:24:16.191Z,0
2017-09-08T03:24:56.646Z,0
2017-09-08T03:25:37.104Z,0
2017-09-08T03:26:17.562Z,0
2017-09-08T03:26:58.018Z,0
2017-09-08T03:27:38.461Z,0
2017-09-08T03:28:18.912Z,0
2017-09-08T03:28:59.365Z,0
2017-09-08T03:29:39.824Z,0
2017-09-08T03:30:20.281Z,0
2017-09-08T03:31:00.834Z,0
2017-09-08T03:31:41.294Z,0
2017-09-08T03:32:21.750Z,0
2017-09-08T03:33:02.201Z,0
2017-09-08T03:33:42.648Z,0
2017-09-08T03:34:23.099Z,0
2017-09-08T03:35:03.596Z,0
2017-09-08T03:35:44.053Z,0
2017-09-08T03:36:24.502Z,0
2017-09-08T03:37:04.955Z,0
2017-09-08T03:37:45.427Z,0
2017-09-08T03:38:25.876Z,0
2017-09-08T03:39:06.473Z,0
2017-09-08T03:39:46.890Z,0
2017-09-08T03:40:27.343Z,0
2017-09-08T03:41:07.803Z,0
2017-09-08T03:41:48.260Z,0
2017-09-08T03:42:28.712Z,0
2017-09-08T03:43:09.193Z,0
2017-09-08T03:43:49.648Z,0
2017-09-08T03:44:30.103Z,0
2017-09-08T03:45:10.580Z,0
2017-09-08T03:45:51.043Z,0
2017-09-08T03:46:31.497Z,0
2017-09-08T03:47:11.961Z,0
2017-09-08T03:47:52.418Z,0
2017-09-08T03:48:32.868Z,0
2017-09-08T03:49:13.318Z,0
2017-09-08T03:49:53.767Z,0
2017-09-08T03:50:34.219Z,0
2017-09-08T03:51:14.668Z,0
2017-09-08T03:51:55.117Z,0
2017-09-08T03:52:35.568Z,0
2017-09-08T03:53:16.081Z,0
2017-09-08T03:53:56.531Z,0
2017-09-08T03:54:36.982Z,0
2017-09-08T03:55:17.495Z,0
2017-09-08T03:55:57.936Z,0
2017-09-08T03:56:38.385Z,0
2017-09-08T03:57:18.841Z,0
2017-09-08T03:57:59.300Z,0
2017-09-08T03:58:39.753Z,0
2017-09-08T03:59:20.218Z,0
2017-09-08T04:00:00.671Z,0
2017-09-08T04:00:41.124Z,0
2017-09-08T04:01:21.669Z,0
2017-09-08T04:02:02.141Z,0
2017-09-08T04:02:42.596Z,0
2017-09-08T04:03:23.060Z,0
2017-09-08T04:04:03.509Z,0
2017-09-08T04:04:43.971Z,0
2017-09-08T04:05:24.429Z,0
2017-09-08T04:06:04.883Z,0
2017-09-08T04:06:45.314Z,0
2017-09-08T04:07:25.762Z,0
2017-09-08T04:08:06.219Z,0
2017-09-08T04:08:46.666Z,0
2017-09-08T04:09:27.118Z,0
2017-09-08T04:10:07.583Z,0
2017-09-08T04:10:48.043Z,0
2017-09-08T04:13:01.065Z,0
2017-09-08T04:13:41.523Z,0
2017-09-08T04:14:22.128Z,0
2017-09-08T04:15:02.579Z,0
2017-09-08T04:15:43.029Z,0
2017-09-08T04:16:23.482Z,0
2017-09-08T04:17:03.946Z,0
2017-09-08T04:17:44.382Z,0
2017-09-08T04:18:24.827Z,0
2017-09-08T04:19:05.280Z,0
2017-09-08T04:19:45.737Z,0
2017-09-08T04:20:26.191Z,0
2017-09-08T04:21:06.645Z,0
2017-09-08T04:21:47.131Z,0
2017-09-08T04:22:27.591Z,0
2017-09-08T04:23:08.039Z,0
2017-09-08T04:23:48.489Z,0
2017-09-08T04:24:28.942Z,0
2017-09-08T04:25:09.392Z,0
2017-09-08T04:25:49.853Z,0
2017-09-08T04:26:30.323Z,0
2017-09-08T04:27:10.764Z,0
2017-09-08T04:27:51.218Z,0
2017-09-08T04:28:31.675Z,0
2017-09-08T04:29:12.123Z,0
2017-09-08T04:29:52.574Z,0
2017-09-08T04:30:33.029Z,0
2017-09-08T04:31:13.486Z,0
2017-09-08T04:31:53.945Z,0
2017-09-08T04:32:34.398Z,0
2017-09-08T04:33:14.850Z,0
2017-09-08T04:33:55.311Z,0
2017-09-08T04:34:35.759Z,0
2017-09-08T04:35:16.245Z,0
2017-09-08T04:35:56.708Z,0
2017-09-08T04:36:37.162Z,0
2017-09-08T04:37:17.617Z,0
2017-09-08T04:37:58.084Z,0
2017-09-08T04:38:38.508Z,0
2017-09-08T04:41:06.591Z,0
2017-09-08T04:41:47.044Z,0
2017-09-08T04:42:27.516Z,0
2017-09-08T04:43:08.005Z,4
2017-09-08T04:43:48.442Z,4
2017-09-08T04:44:28.899Z,4
2017-09-08T04:45:09.347Z,4
2017-09-08T04:45:49.791Z,4
2017-09-08T04:46:30.233Z,4
2017-09-08T04:47:10.684Z,0
2017-09-08T04:49:43.726Z,4
2017-09-08T04:50:24.182Z,4
2017-09-08T04:51:04.640Z,4
2017-09-08T04:51:45.091Z,8
2017-09-08T04:52:25.538Z,4
2017-09-08T04:54:58.653Z,8
2017-09-08T04:55:39.145Z,8
2017-09-08T04:56:19.592Z,4
2017-09-08T04:57:00.047Z,8
2017-09-08T04:57:40.521Z,8
2017-09-08T04:58:20.968Z,8
2017-09-08T04:59:01.420Z,8
2017-09-08T04:59:41.882Z,12
2017-09-08T05:00:22.316Z,8
2017-09-08T05:01:02.783Z,8
2017-09-08T05:01:43.262Z,8
2017-09-08T05:02:23.762Z,12
2017-09-08T05:03:04.380Z,12
2017-09-08T05:05:32.389Z,12
2017-09-08T05:06:12.832Z,8
2017-09-08T05:06:53.287Z,12
2017-09-08T05:07:33.741Z,12
2017-09-08T05:08:14.196Z,12
2017-09-08T05:08:54.643Z,12
2017-09-08T05:09:35.100Z,12
2017-09-08T05:10:15.541Z,12
2017-09-08T05:10:56.004Z,12
2017-09-08T05:11:36.541Z,16
2017-09-08T05:12:16.994Z,12
2017-09-08T05:12:57.445Z,16
2017-09-08T05:13:37.892Z,20
2017-09-08T05:14:18.337Z,20
2017-09-08T05:14:58.790Z,24
2017-09-08T05:15:39.238Z,24
2017-09-08T05:16:19.694Z,24
2017-09-08T05:17:00.134Z,24
2017-09-08T05:17:40.578Z,28
2017-09-08T05:18:21.038Z,28
2017-09-08T05:19:01.538Z,28
2017-09-08T05:19:41.993Z,28
2017-09-08T05:20:22.442Z,32
2017-09-08T05:21:02.896Z,32
2017-09-08T05:21:43.350Z,32
2017-09-08T05:22:23.805Z,32
2017-09-08T05:23:04.261Z,36
2017-09-08T05:23:44.713Z,40
2017-09-08T05:24:25.174Z,40
2017-09-08T05:25:05.660Z,44
2017-09-08T05:25:46.118Z,48
2017-09-08T05:26:26.566Z,48
2017-09-08T05:27:07.017Z,52
2017-09-08T05:27:47.451Z,52
2017-09-08T05:28:27.895Z,52
2017-09-08T05:29:08.351Z,52
2017-09-08T05:29:48.812Z,56
2017-09-08T05:30:29.268Z,56
2017-09-08T05:31:09.718Z,56
2017-09-08T05:31:50.179Z,60
2017-09-08T05:32:30.631Z,56
2017-09-08T05:33:11.081Z,60
2017-09-08T05:33:51.543Z,60
2017-09-08T05:34:31.992Z,60
2017-09-08T05:35:12.453Z,64
2017-09-08T05:35:52.900Z,64
2017-09-08T05:36:33.355Z,64
2017-09-08T05:37:13.824Z,68
2017-09-08T05:37:54.280Z,68
2017-09-08T05:38:34.727Z,72
2017-09-08T05:39:15.178Z,72
2017-09-08T05:39:55.647Z,72
2017-09-08T05:40:36.107Z,68
2017-09-08T05:41:16.624Z,76
2017-09-08T05:41:57.083Z,80
2017-09-08T05:42:37.542Z,80
2017-09-08T05:43:17.996Z,84
2017-09-08T05:43:58.469Z,88
2017-09-08T05:44:39.002Z,88
2017-09-08T05:45:19.453Z,96
2017-09-08T05:45:59.912Z,96
2017-09-08T05:46:40.384Z,96
2017-09-08T05:47:20.831Z,100
2017-09-08T05:48:01.349Z,100
2017-09-08T05:48:41.823Z,108
2017-09-08T05:49:22.274Z,108
2017-09-08T05:50:02.735Z,116
2017-09-08T05:50:43.186Z,124
2017-09-08T05:51:23.647Z,128
2017-09-08T05:52:04.104Z,136
2017-09-08T05:52:44.560Z,144
2017-09-08T05:53:25.022Z,148
2017-09-08T05:54:05.479Z,148
2017-09-08T05:54:45.935Z,152
2017-09-08T05:55:26.387Z,152
2017-09-08T05:56:06.835Z,156
2017-09-08T05:56:47.286Z,156
2017-09-08T05:57:27.738Z,148
2017-09-08T05:58:08.193Z,140
2017-09-08T05:58:48.654Z,128
2017-09-08T05:59:29.089Z,120
2017-09-08T06:00:09.543Z,108
2017-09-08T06:00:49.992Z,108
2017-09-08T06:01:30.445Z,108
2017-09-08T06:02:10.902Z,108
2017-09-08T06:02:51.340Z,112
2017-09-08T06:03:31.798Z,120
2017-09-08T06:04:12.247Z,128
2017-09-08T06:04:52.691Z,140
2017-09-08T06:05:33.143Z,148
2017-09-08T06:06:13.597Z,152
2017-09-08T06:06:54.049Z,160
2017-09-08T06:07:34.510Z,168
2017-09-08T06:08:14.957Z,180
2017-09-08T06:08:55.417Z,184
2017-09-08T06:09:35.862Z,188
2017-09-08T06:10:16.313Z,196
2017-09-08T06:10:56.770Z,208
2017-09-08T06:11:37.230Z,216
2017-09-08T06:12:17.679Z,224
2017-09-08T06:12:58.137Z,236
2017-09-08T06:13:38.587Z,240
2017-09-08T06:14:19.044Z,240
2017-09-08T06:14:59.484Z,240
2017-09-08T06:15:39.940Z,240
2017-09-08T06:16:20.410Z,236
2017-09-08T06:17:00.874Z,232
2017-09-08T06:17:41.318Z,232
2017-09-08T06:18:21.771Z,224
2017-09-08T06:19:02.282Z,216
2017-09-08T06:19:42.735Z,208
2017-09-08T06:20:23.197Z,200
2017-09-08T06:21:03.649Z,184
2017-09-08T06:21:44.099Z,168
2017-09-08T06:22:24.617Z,156
2017-09-08T06:23:05.069Z,152
2017-09-08T06:23:45.524Z,152
2017-09-08T06:24:25.982Z,152
2017-09-08T06:25:06.441Z,156
2017-09-08T06:25:46.898Z,156
2017-09-08T06:26:27.347Z,152
2017-09-08T06:27:07.794Z,156
2017-09-08T06:27:48.250Z,152
2017-09-08T06:28:28.699Z,144
2017-09-08T06:29:09.151Z,140
2017-09-08T06:29:49.604Z,144
2017-09-08T06:30:30.056Z,144
2017-09-08T06:31:10.513Z,144
2017-09-08T06:31:50.964Z,144
2017-09-08T06:32:31.418Z,144
2017-09-08T06:33:11.877Z,152
2017-09-08T06:33:52.333Z,156
2017-09-08T06:34:32.788Z,164
2017-09-08T06:35:13.240Z,172
2017-09-08T06:35:53.690Z,176
2017-09-08T06:36:34.147Z,184
2017-09-08T06:37:14.610Z,192
2017-09-08T06:37:55.062Z,200
2017-09-08T06:38:35.515Z,216
2017-09-08T06:39:15.984Z,228
2017-09-08T06:39:56.442Z,232
2017-09-08T06:40:36.891Z,236
2017-09-08T06:41:17.344Z,228
2017-09-08T06:41:57.797Z,224
2017-09-08T06:42:38.247Z,212
2017-09-08T06:43:18.743Z,196
2017-09-08T06:43:59.202Z,196
2017-09-08T06:44:39.658Z,192
2017-09-08T06:45:20.105Z,188
2017-09-08T06:46:00.609Z,188
2017-09-08T06:46:41.062Z,188
2017-09-08T06:47:21.518Z,188
2017-09-08T06:48:01.977Z,188
2017-09-08T06:48:42.428Z,184
2017-09-08T06:49:22.883Z,184
2017-09-08T06:50:03.339Z,176
2017-09-08T06:50:43.793Z,164
2017-09-08T06:51:24.249Z,160
2017-09-08T06:52:04.703Z,156
2017-09-08T06:52:45.160Z,148
2017-09-08T06:53:25.610Z,136
2017-09-08T06:54:06.065Z,136
2017-09-08T06:54:46.520Z,140
2017-09-08T06:55:26.973Z,140
2017-09-08T06:56:07.431Z,136
2017-09-08T06:56:47.887Z,132
2017-09-08T06:57:28.342Z,128
2017-09-08T06:58:08.806Z,132
2017-09-08T06:58:49.263Z,120
2017-09-08T06:59:29.715Z,112
2017-09-08T07:00:10.212Z,116
2017-09-08T07:00:50.656Z,120
2017-09-08T07:01:31.108Z,116
2017-09-08T07:02:11.565Z,112
2017-09-08T07:02:52.033Z,104
2017-09-08T07:03:32.485Z,104
2017-09-08T07:04:12.939Z,116
2017-09-08T07:04:53.391Z,120
2017-09-08T07:05:33.842Z,116
2017-09-08T07:06:14.304Z,120
2017-09-08T07:06:54.742Z,120
2017-09-08T07:07:35.198Z,124
2017-09-08T07:08:15.647Z,124
2017-09-08T07:08:56.104Z,124
2017-09-08T07:09:36.558Z,124
2017-09-08T07:10:17.124Z,128
2017-09-08T07:10:57.584Z,128
2017-09-08T07:11:38.033Z,128
2017-09-08T07:12:18.539Z,132
2017-09-08T07:12:58.997Z,140
2017-09-08T07:13:39.449Z,156
2017-09-08T07:14:19.897Z,164
2017-09-08T07:15:00.350Z,168
2017-09-08T07:15:40.803Z,168
2017-09-08T07:16:21.308Z,176
2017-09-08T07:17:01.754Z,188
2017-09-08T07:17:42.203Z,200
2017-09-08T07:18:22.655Z,200
2017-09-08T07:19:03.109Z,200
2017-09-08T07:19:43.566Z,200
2017-09-08T07:20:24.020Z,192
2017-09-08T07:21:04.474Z,196
2017-09-08T07:21:44.928Z,204
2017-09-08T07:22:25.420Z,208
2017-09-08T07:23:05.871Z,208
2017-09-08T07:23:46.328Z,208
2017-09-08T07:24:26.782Z,208
2017-09-08T07:25:07.233Z,204
2017-09-08T07:25:47.675Z,200
2017-09-08T07:26:28.134Z,196
2017-09-08T07:27:08.591Z,200
2017-09-08T07:27:49.040Z,200
2017-09-08T07:28:29.480Z,204
2017-09-08T07:29:09.932Z,208
2017-09-08T07:29:50.377Z,216
2017-09-08T07:30:30.832Z,232
2017-09-08T07:31:11.290Z,244
2017-09-08T07:31:51.745Z,260
2017-09-08T07:32:32.203Z,276
2017-09-08T07:33:12.648Z,296
2017-09-08T07:33:53.099Z,304
2017-09-08T07:34:33.551Z,316
2017-09-08T07:35:14.017Z,324
2017-09-08T07:35:54.461Z,336
2017-09-08T07:36:34.922Z,356
2017-09-08T07:37:15.379Z,380
2017-09-08T07:37:55.852Z,404
2017-09-08T07:38:36.302Z,428
2017-09-08T07:39:16.739Z,456
2017-09-08T07:39:57.192Z,492
2017-09-08T07:40:37.646Z,528
2017-09-08T07:41:18.093Z,568
2017-09-08T07:41:58.548Z,796
2017-09-08T07:42:39.051Z,640
2017-09-08T07:43:19.505Z,828
2017-09-08T07:43:59.959Z,792
2017-09-08T07:44:40.424Z,744
2017-09-08T07:45:20.911Z,800
2017-09-08T07:46:01.366Z,876
2017-09-08T07:46:41.819Z,952
2017-09-08T07:47:22.258Z,1144
2017-09-08T07:48:02.715Z,1304
2017-09-08T07:48:43.161Z,1672
2017-09-08T07:49:23.619Z,1776
2017-09-08T07:50:04.070Z,1808
2017-09-08T07:50:44.530Z,1588
2017-09-08T07:51:24.987Z,1336
2017-09-08T07:52:05.442Z,1208
2017-09-08T07:52:45.897Z,1132
2017-09-08T07:53:26.361Z,1064
2017-09-08T07:54:06.818Z,1024
2017-09-08T07:54:47.267Z,1020
2017-09-08T07:55:27.721Z,1024
2017-09-08T07:56:08.173Z,1064
2017-09-08T07:56:48.625Z,1188
2017-09-08T07:57:29.083Z,1244
2017-09-08T07:58:09.542Z,1380
2017-09-08T07:58:49.990Z,1884
2017-09-08T07:59:30.450Z,2048
2017-09-08T08:00:10.902Z,2132
2017-09-08T08:00:51.355Z,2148
2017-09-08T08:01:31.818Z,1984
2017-09-08T08:02:12.281Z,1820
2017-09-08T08:02:52.739Z,2096
2017-09-08T08:03:33.194Z,2204
2017-09-08T08:04:13.666Z,2252
2017-09-08T08:04:54.115Z,2240
2017-09-08T08:05:34.572Z,2292
2017-09-08T08:07:52.353Z,2524
2017-09-08T08:08:32.813Z,2452
2017-09-08T08:09:13.305Z,2404
2017-09-08T08:09:53.763Z,2012
2017-09-08T08:10:34.215Z,1912
2017-09-08T08:11:14.754Z,1656
2017-09-08T08:11:55.204Z,1668
2017-09-08T08:12:35.655Z,1496
2017-09-08T08:13:16.107Z,1448
2017-09-08T08:13:56.558Z,852
2017-09-08T08:14:37.006Z,748
2017-09-08T08:15:17.471Z,668
2017-09-08T08:15:57.905Z,600
2017-09-08T08:16:38.367Z,544
2017-09-08T08:17:18.818Z,504
2017-09-08T08:17:59.272Z,484
2017-09-08T08:18:39.721Z,468
2017-09-08T08:19:20.173Z,464
2017-09-08T08:20:00.621Z,456
2017-09-08T08:20:41.075Z,452
2017-09-08T08:21:21.593Z,444
2017-09-08T08:22:02.049Z,444
2017-09-08T08:22:42.507Z,452
2017-09-08T08:23:22.960Z,464
2017-09-08T08:24:03.408Z,476
2017-09-08T08:24:43.867Z,484
2017-09-08T08:25:24.387Z,492
2017-09-08T08:26:04.857Z,488
2017-09-08T08:26:45.307Z,500
2017-09-08T08:27:25.766Z,516
2017-09-08T08:28:06.221Z,532
2017-09-08T08:28:46.679Z,544
2017-09-08T08:29:27.168Z,556
2017-09-08T08:30:07.622Z,568
2017-09-08T08:30:48.076Z,572
2017-09-08T08:31:28.537Z,580
2017-09-08T08:32:08.995Z,572
2017-09-08T08:32:49.451Z,560
2017-09-08T08:33:29.905Z,552
2017-09-08T08:34:10.357Z,548
2017-09-08T08:34:50.811Z,544
2017-09-08T08:35:31.261Z,540
2017-09-08T08:36:11.727Z,528
2017-09-08T08:36:52.168Z,504
2017-09-08T08:37:32.616Z,484
2017-09-08T08:38:13.071Z,468
2017-09-08T08:38:53.526Z,464
2017-09-08T08:39:34.028Z,472
2017-09-08T08:40:14.428Z,492
2017-09-08T08:40:54.927Z,528
2017-09-08T08:41:35.389Z,576
2017-09-08T08:42:15.837Z,624
2017-09-08T08:42:56.298Z,676
2017-09-08T08:43:36.742Z,720
2017-09-08T08:44:17.198Z,720
2017-09-08T08:44:57.649Z,700
2017-09-08T08:45:38.096Z,672
2017-09-08T08:46:18.547Z,660
2017-09-08T08:46:59.010Z,672
2017-09-08T08:47:39.469Z,676
2017-09-08T08:48:19.927Z,660
2017-09-08T08:49:00.383Z,616
2017-09-08T08:49:40.846Z,572
2017-09-08T08:50:21.299Z,532
2017-09-08T08:51:01.753Z,500
2017-09-08T08:51:42.211Z,472
2017-09-08T08:52:22.658Z,456
2017-09-08T08:53:03.113Z,432
2017-09-08T08:53:43.568Z,416
2017-09-08T08:54:24.021Z,404
2017-09-08T08:55:04.558Z,388
2017-09-08T08:55:45.023Z,380
2017-09-08T08:56:25.487Z,368
2017-09-08T08:57:05.998Z,360
2017-09-08T08:57:46.455Z,352
2017-09-08T08:58:26.912Z,352
2017-09-08T08:59:07.407Z,352
2017-09-08T08:59:47.858Z,360
2017-09-08T09:00:28.314Z,356
2017-09-08T09:01:08.770Z,352
2017-09-08T09:01:49.227Z,340
2017-09-08T09:02:29.673Z,332
2017-09-08T09:03:10.182Z,328
2017-09-08T09:03:50.638Z,324
2017-09-08T09:04:31.075Z,316
2017-09-08T09:05:11.516Z,316
2017-09-08T09:05:51.977Z,316
2017-09-08T09:06:32.428Z,324
2017-09-08T09:07:12.887Z,328
2017-09-08T09:07:53.336Z,336
2017-09-08T09:08:33.788Z,348
2017-09-08T09:09:14.245Z,356
2017-09-08T09:09:54.699Z,376
2017-09-08T09:10:35.145Z,388
2017-09-08T09:11:15.603Z,388
2017-09-08T09:11:56.061Z,392
2017-09-08T09:12:36.516Z,388
2017-09-08T09:13:16.971Z,384
2017-09-08T09:13:57.423Z,388
2017-09-08T09:14:37.879Z,396
2017-09-08T09:15:18.332Z,424
2017-09-08T09:15:58.785Z,456
2017-09-08T09:16:39.238Z,480
2017-09-08T09:17:19.696Z,496
2017-09-08T09:18:00.147Z,512
2017-09-08T09:18:40.619Z,556
2017-09-08T09:19:21.084Z,604
2017-09-08T09:20:01.541Z,636
2017-09-08T09:20:41.993Z,648
2017-09-08T09:21:22.476Z,668
2017-09-08T09:22:02.928Z,692
2017-09-08T09:22:43.385Z,732
2017-09-08T09:23:23.841Z,792
2017-09-08T09:24:04.304Z,728
2017-09-08T09:24:44.760Z,684
2017-09-08T09:25:25.208Z,640
2017-09-08T09:26:05.667Z,612
2017-09-08T09:26:46.122Z,580
2017-09-08T09:27:26.579Z,548
2017-09-08T09:28:07.034Z,520
2017-09-08T09:28:47.495Z,496
2017-09-08T09:29:27.949Z,472
2017-09-08T09:30:08.390Z,452
2017-09-08T09:30:48.840Z,440
2017-09-08T09:31:29.298Z,432
2017-09-08T09:32:09.755Z,420
2017-09-08T09:32:50.212Z,412
2017-09-08T09:33:30.663Z,400
2017-09-08T09:34:11.110Z,388
2017-09-08T09:34:51.566Z,376
2017-09-08T09:35:32.013Z,376
2017-09-08T09:36:12.460Z,376
2017-09-08T09:36:52.916Z,380
2017-09-08T09:37:33.378Z,388
2017-09-08T09:38:13.856Z,400
2017-09-08T09:38:54.308Z,412
2017-09-08T09:39:34.761Z,424
2017-09-08T09:40:15.217Z,424
2017-09-08T09:40:55.670Z,420
2017-09-08T09:41:36.110Z,420
2017-09-08T09:42:16.560Z,428
2017-09-08T09:42:57.021Z,440
2017-09-08T09:43:37.480Z,460
2017-09-08T09:44:17.939Z,468
2017-09-08T09:44:58.426Z,468
2017-09-08T09:45:38.891Z,476
2017-09-08T09:46:19.345Z,480
2017-09-08T09:46:59.798Z,484
2017-09-08T09:47:40.258Z,492
2017-09-08T09:48:20.699Z,496
2017-09-08T09:49:01.152Z,484
2017-09-08T09:49:41.607Z,460
2017-09-08T09:50:22.059Z,436
2017-09-08T09:51:02.510Z,412
2017-09-08T09:51:42.963Z,400
2017-09-08T09:52:23.420Z,392
2017-09-08T09:53:03.873Z,392